createdAt,value
2023-02-14T00:00:03.413Z,0.33
2023-02-14T00:05:05.381Z,-0.16
2023-02-14T00:10:07.890Z,0.31
2023-02-14T00:15:22.552Z,0.27
2023-02-14T00:20:24.915Z,0.25
2023-02-14T00:25:26.616Z,0.13
2023-02-14T00:30:29.860Z,0.06
2023-02-14T00:35:31.638Z,0.23
2023-02-14T00:40:33.297Z,0.13
2023-02-14T00:45:34.949Z,0.21
2023-02-14T00:50:36.619Z,0.33
2023-02-14T00:55:38.402Z,0.02
2023-02-14T01:00:40.086Z,0.17
2023-02-14T01:05:41.852Z,0.06
2023-02-14T01:10:43.970Z,0.12
2023-02-14T01:15:51.193Z,-0.03
2023-02-14T01:20:52.897Z,-0.03
2023-02-14T01:25:54.571Z,-0.31
2023-02-14T01:30:56.281Z,-0.26
2023-02-14T01:35:58.486Z,-0.45
2023-02-14T01:41:00.514Z,-0.03
2023-02-14T01:46:02.473Z,0.10
2023-02-14T01:51:04.295Z,0.01
2023-02-14T01:56:18.672Z,0.01
2023-02-14T02:01:21.214Z,-0.33
2023-02-14T02:06:29.518Z,-0.03
2023-02-14T02:11:31.246Z,-0.26
2023-02-14T02:16:54.309Z,-0.14
2023-02-14T02:22:20.771Z,-0.12
2023-02-14T02:27:34.362Z,-0.27
2023-02-14T02:33:08.026Z,-0.27
2023-02-14T02:38:45.148Z,-0.30
2023-02-14T02:43:49.854Z,-0.31
2023-02-14T02:49:05.872Z,-0.18
2023-02-14T02:54:18.216Z,-0.13
2023-02-14T02:59:27.917Z,-0.20
2023-02-14T03:04:50.696Z,-0.45
2023-02-14T03:09:53.738Z,-0.32
2023-02-14T03:15:22.745Z,-0.58
2023-02-14T03:20:35.967Z,-0.34
2023-02-14T03:25:47.689Z,-0.40
2023-02-14T03:30:58.139Z,-0.45
2023-02-14T03:36:09.379Z,-0.56
2023-02-14T03:41:26.253Z,-0.54
2023-02-14T03:46:32.531Z,-0.56
2023-02-14T03:51:35.906Z,-0.44
2023-02-14T03:56:46.461Z,-0.52
2023-02-14T04:02:01.547Z,-0.53
2023-02-14T04:07:19.095Z,-0.57
2023-02-14T04:12:29.401Z,-0.74
2023-02-14T04:17:57.590Z,-0.66
2023-02-14T04:22:59.335Z,-0.71
2023-02-14T04:28:01.036Z,-0.78
2023-02-14T04:33:04.336Z,-0.83
2023-02-14T04:38:06.934Z,-0.67
2023-02-14T04:43:08.670Z,-0.99
2023-02-14T04:48:10.516Z,-0.89
2023-02-14T04:53:12.183Z,-0.69
2023-02-14T04:58:13.846Z,-0.69
2023-02-14T05:03:15.489Z,-1.01
2023-02-14T05:08:17.157Z,-0.90
2023-02-14T05:13:18.885Z,-0.73
2023-02-14T05:18:20.622Z,-0.72
2023-02-14T05:23:22.450Z,-0.69
2023-02-14T05:28:24.743Z,-1.05
2023-02-14T05:33:26.710Z,-0.80
2023-02-14T05:38:29.526Z,-1.06
2023-02-14T05:43:31.504Z,-0.93
2023-02-14T05:48:33.934Z,-1.01
2023-02-14T05:53:36.096Z,-0.89
2023-02-14T05:58:37.754Z,-1.12
2023-02-14T06:03:39.405Z,-1.03
2023-02-14T06:08:41.053Z,-1.11
2023-02-14T06:13:42.716Z,-1.01
2023-02-14T06:18:44.516Z,-1.01
2023-02-14T06:23:46.150Z,-1.04
2023-02-14T06:29:02.243Z,-1.01
2023-02-14T06:34:03.913Z,-1.04
2023-02-14T06:39:05.609Z,-1.07
2023-02-14T06:44:07.408Z,-1.14
2023-02-14T06:49:10.265Z,-1.14
2023-02-14T06:54:12.016Z,-0.87
2023-02-14T06:59:13.800Z,-0.82
2023-02-14T07:04:15.857Z,-0.84
2023-02-14T07:09:18.425Z,-0.77
2023-02-14T07:14:20.152Z,-0.76
2023-02-14T07:19:21.964Z,-0.83
2023-02-14T07:24:23.763Z,-0.83
2023-02-14T07:29:25.589Z,-0.71
2023-02-14T07:34:27.437Z,-0.66
2023-02-14T07:39:29.956Z,-0.67
2023-02-14T07:44:31.659Z,-0.65
2023-02-14T07:49:33.456Z,-0.54
2023-02-14T07:54:35.565Z,-0.49
2023-02-14T07:59:37.299Z,-0.52
2023-02-14T08:04:38.973Z,-0.40
2023-02-14T08:09:40.762Z,-0.29
2023-02-14T08:14:43.530Z,-0.31
2023-02-14T08:19:45.210Z,0.26
2023-02-14T08:24:47.230Z,-0.11
2023-02-14T08:29:50.328Z,-0.12
2023-02-14T08:34:52.656Z,-0.04
2023-02-14T08:39:57.789Z,0.03
2023-02-14T08:44:59.553Z,0.07
2023-02-14T08:50:02.761Z,0.16
2023-02-14T08:55:05.494Z,0.30
2023-02-14T09:00:09.226Z,0.45
2023-02-14T09:05:11.077Z,0.48
2023-02-14T09:10:13.230Z,0.68
2023-02-14T09:15:15.073Z,0.83
2023-02-14T09:20:17.003Z,0.93
2023-02-14T09:25:18.795Z,1.02
2023-02-14T09:30:20.620Z,1.14
2023-02-14T09:35:40.844Z,1.25
2023-02-14T09:40:42.926Z,1.41
2023-02-14T09:45:51.495Z,1.46
2023-02-14T09:50:56.485Z,1.55
2023-02-14T09:56:14.286Z,1.62
2023-02-14T10:01:24.262Z,1.76
2023-02-14T10:11:24.800Z,2.13
2023-02-14T10:16:32.672Z,2.14
2023-02-14T10:21:42.665Z,2.45
2023-02-14T10:26:47.446Z,2.33
2023-02-14T10:32:00.844Z,2.38
2023-02-14T10:37:08.242Z,2.61
2023-02-14T10:42:23.312Z,2.65
2023-02-14T10:47:40.236Z,2.94
2023-02-14T10:53:19.065Z,2.70
2023-02-14T10:58:24.517Z,2.86
2023-02-14T11:03:28.448Z,4.04
2023-02-14T11:08:36.794Z,3.47
2023-02-14T11:13:41.841Z,4.17
2023-02-14T11:18:43.616Z,4.08
2023-02-14T11:23:48.513Z,3.33
2023-02-14T11:29:14.983Z,3.42
2023-02-14T11:34:32.023Z,4.01
2023-02-14T11:39:35.282Z,4.45
2023-02-14T11:44:43.959Z,3.83
2023-02-14T11:50:01.332Z,3.77
2023-02-14T11:55:03.024Z,4.69
2023-02-14T12:00:16.932Z,4.71
2023-02-14T12:05:18.691Z,4.69
2023-02-14T12:10:27.860Z,4.29
2023-02-14T12:15:42.802Z,4.18
2023-02-14T12:20:49.483Z,4.79
2023-02-14T12:25:59.019Z,4.36
2023-02-14T12:31:01.027Z,4.35
2023-02-14T12:36:02.866Z,4.07
2023-02-14T12:41:04.719Z,4.53
2023-02-14T12:46:34.273Z,4.31
2023-02-14T12:52:10.142Z,4.40
2023-02-14T12:57:14.822Z,4.37
2023-02-14T13:02:58.404Z,5.51
2023-02-14T13:08:38.426Z,4.84
2023-02-14T13:14:04.746Z,5.49
2023-02-14T13:19:33.793Z,4.88
2023-02-14T13:24:44.891Z,4.91
2023-02-14T13:29:56.574Z,4.96
2023-02-14T13:34:58.871Z,5.01
2023-02-14T13:40:08.287Z,5.04
2023-02-14T13:45:30.425Z,4.82
2023-02-14T13:50:37.201Z,5.23
2023-02-14T13:55:44.305Z,5.36
2023-02-14T14:00:50.853Z,4.97
2023-02-14T14:06:10.813Z,5.26
2023-02-14T14:11:35.071Z,5.34
2023-02-14T14:16:38.446Z,5.53
2023-02-14T14:21:45.901Z,6.94
2023-02-14T14:27:15.561Z,6.69
2023-02-14T14:32:21.588Z,6.81
2023-02-14T14:37:29.181Z,6.75
2023-02-14T14:42:36.939Z,6.89
2023-02-14T14:47:43.505Z,6.00
2023-02-14T14:52:54.491Z,6.32
2023-02-14T14:58:04.902Z,5.98
2023-02-14T15:03:12.321Z,5.74
2023-02-14T15:08:20.218Z,5.92
2023-02-14T15:13:57.574Z,5.72
2023-02-14T15:19:12.937Z,5.64
2023-02-14T15:24:17.498Z,5.72
2023-02-14T15:29:22.986Z,5.93
2023-02-14T15:34:36.206Z,5.65
2023-02-14T15:39:50.508Z,5.05
2023-02-14T15:45:22.595Z,4.90
2023-02-14T15:50:28.048Z,5.31
2023-02-14T15:55:31.100Z,4.93
2023-02-14T16:00:34.066Z,4.89
2023-02-14T16:05:35.934Z,4.90
2023-02-14T16:10:39.184Z,4.85
2023-02-14T16:16:00.260Z,4.63
2023-02-14T16:21:22.025Z,4.36
2023-02-14T16:26:23.949Z,4.21
2023-02-14T16:31:25.801Z,4.12
2023-02-14T16:36:33.108Z,3.95
2023-02-14T16:41:35.283Z,3.83
2023-02-14T16:46:37.695Z,3.62
2023-02-14T16:51:43.414Z,3.53
2023-02-14T16:56:59.105Z,3.47
2023-02-14T17:02:02.686Z,3.36
2023-02-14T17:07:06.982Z,3.23
2023-02-14T17:12:16.540Z,3.18
2023-02-14T17:17:20.023Z,3.06
2023-02-14T17:22:22.469Z,3.02
2023-02-14T17:27:24.823Z,2.91
2023-02-14T17:32:28.222Z,2.80
2023-02-14T17:37:31.870Z,2.73
2023-02-14T17:42:36.511Z,2.67
2023-02-14T17:47:40.180Z,2.64
2023-02-14T17:52:43.268Z,2.57
2023-02-14T17:57:45.279Z,2.52
2023-02-14T18:02:47.904Z,2.45
2023-02-14T18:07:52.501Z,2.38
2023-02-14T18:12:56.027Z,2.60
2023-02-14T18:17:58.546Z,2.58
2023-02-14T18:23:02.774Z,2.58
2023-02-14T18:28:05.873Z,2.46
2023-02-14T18:33:08.301Z,2.38
2023-02-14T18:38:11.466Z,2.30
2023-02-14T18:43:15.184Z,2.27
2023-02-14T18:48:19.720Z,2.18
2023-02-14T18:53:23.917Z,2.08
2023-02-14T18:58:26.476Z,2.03
2023-02-14T19:03:29.432Z,2.00
2023-02-14T19:08:37.155Z,1.91
2023-02-14T19:13:39.599Z,1.89
2023-02-14T19:23:58.570Z,1.82
2023-02-14T19:29:05.275Z,1.73
2023-02-14T19:34:09.879Z,1.76
2023-02-14T19:39:18.138Z,1.69
2023-02-14T19:44:24.994Z,1.64
2023-02-14T19:49:29.237Z,1.66
2023-02-14T19:54:32.867Z,1.64
2023-02-14T19:59:35.036Z,1.55
2023-02-14T20:04:38.783Z,1.47
2023-02-14T20:09:43.564Z,1.42
2023-02-14T20:14:51.352Z,1.42
2023-02-14T20:19:54.612Z,1.22
2023-02-14T20:25:00.250Z,1.36
2023-02-14T20:30:08.125Z,1.31
2023-02-14T20:35:11.009Z,1.24
2023-02-14T20:40:14.574Z,1.15
2023-02-14T20:45:17.456Z,1.19
2023-02-14T20:50:20.842Z,1.07
2023-02-14T20:55:23.578Z,1.12
2023-02-14T21:00:26.289Z,1.14
2023-02-14T21:05:29.477Z,1.05
2023-02-14T21:10:32.457Z,0.99
2023-02-14T21:15:35.273Z,0.97
2023-02-14T21:20:38.261Z,0.96
2023-02-14T21:25:41.671Z,0.90
2023-02-14T21:30:44.710Z,0.93
2023-02-14T21:35:47.370Z,1.13
2023-02-14T21:41:02.554Z,1.18
2023-02-14T21:46:06.980Z,1.08
2023-02-14T21:51:11.232Z,1.11
2023-02-14T21:56:18.096Z,0.94
2023-02-14T22:01:32.340Z,0.77
2023-02-14T22:06:35.333Z,0.77
2023-02-14T22:11:37.097Z,0.77
2023-02-14T22:16:39.106Z,0.69
2023-02-14T22:21:41.390Z,0.63
2023-02-14T22:26:43.226Z,0.58
2023-02-14T22:31:45.055Z,0.54
2023-02-14T22:36:46.942Z,0.40
2023-02-14T22:41:48.567Z,0.46
2023-02-14T22:46:50.348Z,0.43
2023-02-14T22:51:52.040Z,0.49
2023-02-14T22:56:53.664Z,0.38
2023-02-14T23:01:55.407Z,0.38
2023-02-14T23:06:57.245Z,0.39
2023-02-14T23:11:58.934Z,0.29
2023-02-14T23:17:19.070Z,0.28
2023-02-14T23:22:26.563Z,0.23
2023-02-14T23:27:37.079Z,0.19
2023-02-14T23:32:38.844Z,0.17
2023-02-14T23:37:41.030Z,0.30
2023-02-14T23:42:42.744Z,0.10
2023-02-14T23:47:44.424Z,0.32
2023-02-14T23:52:46.153Z,0.21
2023-02-14T23:57:47.885Z,-0.03
